Blue Star — WDJ5868 — position and weather

sailwx.info

Track history (hours):
 
Tides and Currents Weather Stations Pressure Air Temp Water Temp Dewpoint Dewpoint Depression Visibility Wind Speed Wind Dir Waves Ship Positions

Blue Star

Owner: Blue Star Marine, LAKE CHARLES, LA. More information available from US FCC via Universal Licensing System and Coast Guard Vessel Documentation Center.

Last reported at 2017-Nov-05 10:03 UTC. Time now 2017-Dec-12 20:01 UTC.
Position N 30°12' W 093°14'.
Warning: this ship's position is 37 days out of date.

Length 12 m; draft 1.8 m.

Type: Ship. MMSI: 367792040.

Date/timePositionNaut miles runAvg speedWind from/ knotsBaromVisibWave heightAir tempDewpointWater temp
2017-Nov-05 10:03N 30°12' W 093°14'0 0.0
2017-Nov-05 10:00N 30°12' W 093°14'1 1.6
2017-Nov-05 09:31N 30°13' W 093°15'1 0.2
2017-Nov-05 05:21N 30°12' W 093°14'2 4.6
2017-Nov-05 05:00N 30°13' W 093°16'  
2017-Oct-26 17:02N 30°12' W 093°14'0 0.0
2017-Oct-26 17:00N 30°12' W 093°14'3 6.8
2017-Oct-26 16:30N 30°11' W 093°18'3 6.0
2017-Oct-26 16:00N 30°13' W 093°15'1 0.1
2017-Oct-26 11:08N 30°12' W 093°14'0 2.0
2017-Oct-26 11:00N 30°12' W 093°15'4 7.5
2017-Oct-26 10:30N 30°11' W 093°19'  
Track history (hours):
 
Tides and Currents Weather Stations Pressure Air Temp Water Temp Dewpoint Dewpoint Depression Visibility Wind Speed Wind Dir Waves Ship Positions

Blue Star

Owner: Blue Star Marine, LAKE CHARLES, LA. More information available from US FCC via Universal Licensing System and Coast Guard Vessel Documentation Center.

Last reported at 2017-Nov-05 10:03 UTC. Time now 2017-Dec-12 20:01 UTC.
Position N 30°12' W 093°14'.
Warning: this ship's position is 37 days out of date.

Length 12 m; draft 1.8 m.

Type: Ship. MMSI: 367792040.

Date/timePositionNaut miles runAvg speedWind from/ knotsBaromVisibWave heightAir tempDewpointWater temp
2017-Nov-05 10:03N 30°12' W 093°14'0 0.0
2017-Nov-05 10:00N 30°12' W 093°14'1 1.6
2017-Nov-05 09:31N 30°13' W 093°15'1 0.2
2017-Nov-05 05:21N 30°12' W 093°14'2 4.6
2017-Nov-05 05:00N 30°13' W 093°16'  
2017-Oct-26 17:02N 30°12' W 093°14'0 0.0
2017-Oct-26 17:00N 30°12' W 093°14'3 6.8
2017-Oct-26 16:30N 30°11' W 093°18'3 6.0
2017-Oct-26 16:00N 30°13' W 093°15'1 0.1
2017-Oct-26 11:08N 30°12' W 093°14'0 2.0
2017-Oct-26 11:00N 30°12' W 093°15'4 7.5
2017-Oct-26 10:30N 30°11' W 093°19'  

Dump ship's entire track history